createdAt,value
2022-11-18T00:01:56.470Z,8.60
2022-11-18T00:04:25.916Z,9.07
2022-11-18T00:06:55.422Z,6.83
2022-11-18T00:09:24.847Z,7.90
2022-11-18T00:12:11.993Z,7.57
2022-11-18T00:14:41.453Z,8.10
2022-11-18T00:17:10.872Z,8.80
2022-11-18T00:19:41.648Z,7.70
2022-11-18T00:22:14.625Z,7.00
2022-11-18T00:24:44.063Z,7.13
2022-11-18T00:27:13.506Z,8.87
2022-11-18T00:29:43.027Z,9.10
2022-11-18T00:32:12.447Z,6.47
2022-11-18T00:34:42.712Z,5.90
2022-11-18T00:37:12.148Z,7.37
2022-11-18T00:39:41.602Z,7.17
2022-11-18T00:42:28.811Z,6.57
2022-11-18T00:44:58.235Z,8.13
2022-11-18T00:47:27.681Z,7.40
2022-11-18T00:49:57.114Z,5.93
2022-11-18T00:52:26.558Z,5.60
2022-11-18T00:54:55.994Z,6.93
2022-11-18T00:57:25.452Z,8.63
2022-11-18T00:59:54.875Z,7.83
2022-11-18T01:02:24.953Z,7.53
2022-11-18T01:04:54.504Z,8.80
2022-11-18T01:07:24.109Z,7.80
2022-11-18T01:09:53.585Z,6.90
2022-11-18T01:12:40.783Z,7.60
2022-11-18T01:15:10.623Z,7.53
2022-11-18T01:17:40.086Z,7.80
2022-11-18T01:20:10.271Z,6.90
2022-11-18T01:22:39.717Z,8.70
2022-11-18T01:25:09.678Z,10.27
2022-11-18T01:27:39.358Z,8.23
2022-11-18T01:30:09.741Z,8.17
2022-11-18T01:32:39.189Z,9.03
2022-11-18T01:35:09.149Z,8.60
2022-11-18T01:37:38.963Z,8.57
2022-11-18T01:40:10.376Z,9.07
2022-11-18T01:42:40.454Z,8.50
2022-11-18T01:45:14.483Z,8.70
2022-11-18T01:47:48.538Z,9.77
2022-11-18T01:50:21.137Z,7.33
2022-11-18T01:52:53.863Z,7.33
2022-11-18T01:55:27.887Z,9.33
2022-11-18T01:58:07.482Z,7.50
2022-11-18T02:00:37.426Z,8.23
2022-11-18T02:03:07.886Z,7.40
2022-11-18T02:05:40.502Z,8.80
2022-11-18T02:08:10.488Z,7.63
2022-11-18T02:10:39.908Z,6.73
2022-11-18T02:13:09.354Z,7.20
2022-11-18T02:15:52.375Z,8.20
2022-11-18T02:18:31.885Z,7.50
2022-11-18T02:21:20.965Z,7.47
2022-11-18T02:24:12.831Z,7.60
2022-11-18T02:27:15.648Z,9.27
2022-11-18T02:29:58.289Z,7.60
2022-11-18T02:32:34.827Z,7.57
2022-11-18T02:35:29.715Z,9.30
2022-11-18T02:38:12.582Z,6.80
2022-11-18T02:40:52.269Z,8.70
2022-11-18T02:43:29.651Z,8.10
2022-11-18T02:46:03.702Z,7.97
2022-11-18T02:48:37.998Z,7.67
2022-11-18T02:51:10.163Z,10.13
2022-11-18T02:53:42.508Z,7.23
2022-11-18T02:56:14.157Z,6.20
2022-11-18T02:58:43.763Z,8.83
2022-11-18T03:01:23.669Z,7.63
2022-11-18T03:03:53.540Z,7.97
2022-11-18T03:06:39.774Z,9.40
2022-11-18T03:09:34.831Z,7.80
2022-11-18T03:12:17.657Z,8.23
2022-11-18T03:15:21.392Z,9.10
2022-11-18T03:18:09.844Z,8.50
2022-11-18T03:20:49.898Z,7.50
2022-11-18T03:23:41.662Z,8.23
2022-11-18T03:26:24.395Z,7.47
2022-11-18T03:29:01.477Z,7.23
2022-11-18T03:31:53.863Z,6.80
2022-11-18T03:34:27.908Z,9.27
2022-11-18T03:37:06.293Z,9.37
2022-11-18T03:39:38.209Z,7.80
2022-11-18T03:42:30.483Z,10.27
2022-11-18T03:45:04.516Z,7.93
2022-11-18T03:47:50.538Z,6.60
2022-11-18T03:50:24.573Z,7.23
2022-11-18T03:52:56.041Z,7.83
2022-11-18T03:55:32.978Z,6.57
2022-11-18T03:58:12.827Z,4.63
2022-11-18T04:00:47.036Z,6.07
2022-11-18T04:03:16.718Z,7.10
2022-11-18T04:05:47.336Z,5.77
2022-11-18T04:08:24.523Z,6.93
2022-11-18T04:11:40.352Z,7.53
2022-11-18T04:14:12.000Z,6.50
2022-11-18T04:16:46.125Z,6.57
2022-11-18T04:19:15.581Z,7.87
2022-11-18T04:21:45.032Z,7.80
2022-11-18T04:24:14.462Z,8.93
2022-11-18T04:26:44.124Z,7.50
2022-11-18T04:29:13.583Z,7.00
2022-11-18T04:31:43.039Z,6.50
2022-11-18T04:34:12.471Z,7.40
2022-11-18T04:36:41.923Z,10.43
2022-11-18T04:39:11.419Z,10.13
2022-11-18T04:41:55.885Z,9.50
2022-11-18T04:44:31.658Z,10.00
2022-11-18T04:47:07.414Z,7.60
2022-11-18T04:49:37.550Z,7.50
2022-11-18T04:52:07.573Z,7.43
2022-11-18T04:54:37.172Z,7.27
2022-11-18T04:57:06.688Z,6.73
2022-11-18T04:59:36.350Z,5.53
2022-11-18T05:02:06.536Z,6.27
2022-11-18T05:04:36.698Z,6.13
2022-11-18T05:07:08.049Z,5.97
2022-11-18T05:09:37.537Z,6.97
2022-11-18T05:12:24.887Z,6.70
2022-11-18T05:14:54.313Z,5.97
2022-11-18T05:17:23.776Z,7.17
2022-11-18T05:19:53.195Z,8.57
2022-11-18T05:22:22.654Z,10.70
2022-11-18T05:24:52.088Z,12.07
2022-11-18T05:27:21.568Z,10.00
2022-11-18T05:29:51.002Z,9.27
2022-11-18T05:32:20.721Z,6.93
2022-11-18T05:34:50.319Z,7.50
2022-11-18T05:37:19.769Z,6.40
2022-11-18T05:39:49.201Z,9.37
2022-11-18T05:42:36.490Z,9.03
2022-11-18T05:45:06.797Z,10.40
2022-11-18T05:47:37.901Z,8.27
2022-11-18T05:50:08.324Z,6.00
2022-11-18T05:52:37.769Z,5.20
2022-11-18T05:55:08.624Z,6.60
2022-11-18T05:57:38.073Z,6.87
2022-11-18T06:00:08.142Z,5.47
2022-11-18T06:02:37.876Z,6.70
2022-11-18T06:05:08.069Z,6.20
2022-11-18T06:07:44.641Z,5.93
2022-11-18T06:10:18.737Z,8.23
2022-11-18T06:12:52.303Z,8.30
2022-11-18T06:15:26.335Z,6.33
2022-11-18T06:18:00.400Z,6.37
2022-11-18T06:20:30.363Z,6.50
2022-11-18T06:23:02.049Z,7.33
2022-11-18T06:25:31.994Z,6.57
2022-11-18T06:28:04.033Z,8.10
2022-11-18T06:30:33.469Z,6.10
2022-11-18T06:33:02.950Z,5.40
2022-11-18T06:35:32.386Z,6.23
2022-11-18T06:38:01.904Z,6.03
2022-11-18T06:40:34.970Z,6.50
2022-11-18T06:43:26.790Z,7.53
2022-11-18T06:46:18.946Z,7.33
2022-11-18T06:48:48.738Z,5.80
2022-11-18T06:51:18.692Z,5.20
2022-11-18T06:53:48.581Z,6.00
2022-11-18T06:56:20.326Z,6.40
2022-11-18T06:58:51.446Z,7.50
2022-11-18T07:01:27.773Z,6.50
2022-11-18T07:04:00.093Z,6.70
2022-11-18T07:06:33.539Z,6.73
2022-11-18T07:09:06.901Z,5.93
2022-11-18T07:11:38.196Z,6.67
2022-11-18T07:14:08.658Z,6.90
2022-11-18T07:16:38.901Z,9.30
2022-11-18T07:19:15.820Z,8.57
2022-11-18T07:21:45.447Z,7.37
2022-11-18T07:24:17.070Z,7.97
2022-11-18T07:26:46.512Z,9.60
2022-11-18T07:29:16.228Z,8.57
2022-11-18T07:31:45.773Z,7.63
2022-11-18T07:34:15.500Z,10.00
2022-11-18T07:36:45.013Z,9.23
2022-11-18T07:39:14.460Z,8.30
2022-11-18T07:41:43.906Z,9.63
2022-11-18T07:44:13.796Z,8.20
2022-11-18T07:46:43.240Z,8.87
2022-11-18T07:49:13.562Z,10.10
2022-11-18T07:51:43.005Z,8.13
2022-11-18T07:54:17.241Z,8.30
2022-11-18T07:56:46.717Z,8.80
2022-11-18T07:59:16.560Z,7.60
2022-11-18T08:01:46.145Z,7.43
2022-11-18T08:04:16.572Z,10.60
2022-11-18T08:07:08.504Z,10.20
2022-11-18T08:09:37.948Z,9.73
2022-11-18T08:12:07.708Z,10.20
2022-11-18T08:14:37.163Z,9.30
2022-11-18T08:17:06.606Z,9.93
2022-11-18T08:19:38.999Z,9.60
2022-11-18T08:22:08.442Z,8.90
2022-11-18T08:24:37.960Z,7.93
2022-11-18T08:27:07.403Z,9.87
2022-11-18T08:29:36.845Z,9.20
2022-11-18T08:32:07.489Z,8.83
2022-11-18T08:34:37.202Z,8.73
2022-11-18T08:37:06.633Z,8.17
2022-11-18T08:39:36.082Z,7.40
2022-11-18T08:42:05.520Z,10.77
2022-11-18T08:44:34.977Z,11.67
2022-11-18T08:47:04.402Z,8.10
2022-11-18T08:49:33.872Z,9.97
2022-11-18T08:52:03.309Z,8.00
2022-11-18T08:54:32.878Z,11.47
2022-11-18T08:57:02.547Z,8.77
2022-11-18T08:59:32.611Z,8.83
2022-11-18T09:02:02.089Z,8.87
2022-11-18T09:04:31.570Z,7.43
2022-11-18T09:07:01.049Z,8.33
2022-11-18T09:09:30.541Z,8.30
2022-11-18T09:11:59.969Z,8.30
2022-11-18T09:17:00.575Z,7.60
2022-11-18T09:22:01.427Z,8.37
2022-11-18T09:24:30.887Z,11.47
2022-11-18T09:27:00.389Z,8.33
2022-11-18T09:29:29.860Z,7.33
2022-11-18T09:32:00.995Z,8.93
2022-11-18T09:34:31.186Z,7.93
2022-11-18T09:37:00.625Z,8.27
2022-11-18T09:39:30.071Z,7.73
2022-11-18T09:42:06.878Z,9.73
2022-11-18T09:45:20.739Z,8.80
2022-11-18T09:47:47.150Z,7.37
2022-11-18T09:53:13.732Z,8.60
2022-11-18T09:55:43.678Z,6.40
2022-11-18T09:58:36.079Z,6.63
2022-11-18T10:01:15.444Z,6.93
2022-11-18T10:03:44.975Z,7.67
2022-11-18T10:06:29.396Z,6.97
2022-11-18T10:09:17.904Z,7.00
2022-11-18T10:12:23.528Z,6.60
2022-11-18T10:15:31.106Z,6.30
2022-11-18T10:18:58.416Z,6.70
2022-11-18T10:21:06.868Z,5.47
2022-11-18T10:23:55.911Z,5.50
2022-11-18T10:26:41.704Z,5.10
2022-11-18T10:29:11.594Z,4.40
2022-11-18T10:32:04.274Z,5.20
2022-11-18T10:34:35.571Z,5.43
2022-11-18T10:40:05.530Z,5.60
2022-11-18T10:42:46.693Z,5.43
2022-11-18T10:45:26.257Z,4.23
2022-11-18T10:48:20.129Z,4.83
2022-11-18T10:50:55.807Z,5.10
2022-11-18T10:53:38.556Z,5.57
2022-11-18T10:56:16.714Z,5.10
2022-11-18T10:58:52.829Z,5.33
2022-11-18T11:01:25.895Z,4.60
2022-11-18T11:04:06.171Z,5.60
2022-11-18T11:06:40.641Z,4.60
2022-11-18T11:09:17.198Z,5.07
2022-11-18T11:12:00.273Z,4.23
2022-11-18T11:14:55.049Z,4.33
2022-11-18T11:17:43.636Z,4.77
2022-11-18T11:20:20.633Z,5.13
2022-11-18T11:22:50.832Z,5.23
2022-11-18T11:31:01.764Z,4.70
2022-11-18T11:34:02.396Z,4.67
2022-11-18T11:36:51.503Z,4.80
2022-11-18T11:39:44.881Z,3.63
2022-11-18T11:42:42.287Z,3.80
2022-11-18T11:45:46.028Z,3.87
2022-11-18T11:48:44.279Z,3.90
2022-11-18T11:51:36.160Z,3.90
2022-11-18T11:54:31.320Z,4.30
2022-11-18T11:57:08.229Z,4.13
2022-11-18T11:59:58.941Z,3.07
2022-11-18T12:02:58.561Z,4.43
2022-11-18T12:05:43.196Z,3.47
2022-11-18T12:08:17.322Z,4.00
2022-11-18T12:11:17.025Z,4.00
2022-11-18T12:14:06.030Z,3.67
2022-11-18T12:17:06.468Z,3.90
2022-11-18T12:19:39.840Z,4.30
2022-11-18T12:22:09.278Z,4.30
2022-11-18T12:24:42.526Z,3.73
2022-11-18T12:27:28.061Z,4.00
2022-11-18T12:30:02.045Z,3.77
2022-11-18T12:32:43.353Z,3.87
2022-11-18T12:35:25.809Z,3.30
2022-11-18T12:37:59.581Z,4.10
2022-11-18T12:40:52.691Z,2.83
2022-11-18T12:43:47.161Z,3.40
2022-11-18T12:46:45.542Z,3.53
2022-11-18T12:49:28.428Z,3.10
2022-11-18T12:52:01.833Z,3.50
2022-11-18T12:54:41.453Z,4.43
2022-11-18T12:57:24.270Z,4.00
2022-11-18T12:59:54.459Z,4.47
2022-11-18T13:02:31.943Z,4.10
2022-11-18T13:05:23.312Z,4.10
2022-11-18T13:08:14.840Z,3.37
2022-11-18T13:11:34.928Z,2.90
2022-11-18T13:14:25.001Z,3.90
2022-11-18T13:17:12.545Z,3.63
2022-11-18T13:19:42.008Z,2.63
2022-11-18T13:22:37.956Z,2.67
2022-11-18T13:25:09.020Z,2.97
2022-11-18T13:27:52.430Z,4.83
2022-11-18T13:30:21.950Z,4.43
2022-11-18T13:32:55.162Z,4.00
2022-11-18T13:35:28.678Z,4.20
2022-11-18T13:38:02.077Z,4.30
2022-11-18T13:40:48.990Z,4.20
2022-11-18T13:43:23.033Z,3.93
2022-11-18T13:45:52.855Z,3.57
2022-11-18T13:48:22.425Z,3.33
2022-11-18T13:50:55.453Z,3.47
2022-11-18T13:53:43.399Z,3.53
2022-11-18T13:56:34.880Z,3.70
2022-11-18T13:59:20.933Z,4.27
2022-11-18T14:01:37.256Z,3.27
2022-11-18T14:04:10.505Z,3.37
2022-11-18T14:06:42.443Z,3.40
2022-11-18T14:09:29.885Z,4.40
2022-11-18T14:12:07.568Z,4.00
2022-11-18T14:14:40.983Z,3.70
2022-11-18T14:17:30.211Z,3.13
2022-11-18T14:20:02.936Z,3.20
2022-11-18T14:22:33.628Z,2.60
2022-11-18T14:25:20.076Z,2.87
2022-11-18T14:27:55.038Z,2.80
2022-11-18T14:30:39.828Z,2.83
2022-11-18T14:33:20.679Z,4.10
2022-11-18T14:36:03.302Z,6.27
2022-11-18T14:39:04.404Z,4.60
2022-11-18T14:41:44.217Z,3.20
2022-11-18T14:44:11.031Z,2.23
2022-11-18T14:46:42.162Z,2.17
2022-11-18T14:49:22.432Z,1.87
2022-11-18T14:51:55.167Z,3.93
2022-11-18T14:54:27.951Z,2.80
2022-11-18T14:57:04.775Z,2.40
2022-11-18T14:59:34.293Z,2.07
2022-11-18T15:02:03.800Z,1.60
2022-11-18T15:04:33.255Z,1.70
2022-11-18T15:07:02.789Z,1.30
2022-11-18T15:09:32.318Z,1.40
2022-11-18T15:12:03.537Z,1.33
2022-11-18T15:14:34.878Z,1.30
2022-11-18T15:17:05.816Z,1.10
2022-11-18T15:19:37.144Z,1.10
2022-11-18T15:22:06.575Z,1.20
2022-11-18T15:24:36.102Z,0.90
2022-11-18T15:27:05.617Z,1.30
2022-11-18T15:29:35.135Z,1.37
2022-11-18T15:32:05.255Z,2.00
2022-11-18T15:34:34.686Z,1.10
2022-11-18T15:37:04.127Z,1.10
2022-11-18T15:39:33.568Z,1.10
2022-11-18T15:42:03.006Z,0.83
2022-11-18T15:44:32.456Z,1.23
2022-11-18T15:47:01.892Z,1.10
2022-11-18T15:49:31.375Z,0.80
2022-11-18T15:52:00.861Z,0.83
2022-11-18T15:54:30.299Z,1.10
2022-11-18T15:56:59.751Z,1.00
2022-11-18T15:59:29.195Z,1.10
2022-11-18T16:01:58.916Z,2.20
2022-11-18T16:04:28.350Z,1.43
2022-11-18T16:06:59.596Z,1.50
2022-11-18T16:09:30.751Z,1.00
2022-11-18T16:12:17.733Z,1.10
2022-11-18T16:14:48.807Z,1.00
2022-11-18T16:17:18.244Z,0.70
2022-11-18T16:19:48.460Z,0.97
2022-11-18T16:22:17.906Z,1.00
2022-11-18T16:24:48.591Z,1.03
2022-11-18T16:27:20.830Z,0.73
2022-11-18T16:29:49.237Z,0.90
2022-11-18T16:32:18.670Z,0.97
2022-11-18T16:34:48.251Z,1.00
2022-11-18T16:37:17.684Z,0.73
2022-11-18T16:39:47.124Z,1.00
2022-11-18T16:42:17.035Z,1.00
2022-11-18T16:44:46.546Z,0.97
2022-11-18T16:47:16.013Z,1.00
2022-11-18T16:49:45.516Z,1.00
2022-11-18T16:52:15.051Z,0.90
2022-11-18T16:54:45.959Z,0.77
2022-11-18T16:57:15.823Z,0.90
2022-11-18T16:59:45.260Z,1.00
2022-11-18T17:02:15.948Z,1.00
2022-11-18T17:04:45.462Z,1.00
2022-11-18T17:07:15.320Z,1.17
2022-11-18T17:09:44.781Z,1.03
2022-11-18T17:12:14.234Z,0.90
2022-11-18T17:14:43.681Z,0.93
2022-11-18T17:17:13.130Z,1.10
2022-11-18T17:19:42.572Z,0.93
2022-11-18T17:22:12.012Z,1.00
2022-11-18T17:24:41.435Z,1.27
2022-11-18T17:27:10.886Z,1.10
2022-11-18T17:29:40.323Z,1.10
2022-11-18T17:32:10.987Z,1.13
2022-11-18T17:34:40.858Z,1.70
2022-11-18T17:37:10.710Z,1.63
2022-11-18T17:39:40.147Z,1.50
2022-11-18T17:42:15.133Z,1.30
2022-11-18T17:44:44.750Z,1.10
2022-11-18T17:47:14.254Z,1.27
2022-11-18T17:49:43.693Z,1.20
2022-11-18T17:52:13.162Z,0.80
2022-11-18T17:54:42.622Z,1.10
2022-11-18T17:57:12.052Z,0.90
2022-11-18T17:59:41.487Z,1.10
2022-11-18T18:02:13.578Z,0.97
2022-11-18T18:04:43.034Z,1.20
2022-11-18T18:07:12.511Z,0.93
2022-11-18T18:09:41.983Z,1.10
2022-11-18T18:12:29.356Z,1.20
2022-11-18T18:14:58.814Z,1.83
2022-11-18T18:17:28.245Z,1.20
2022-11-18T18:19:57.699Z,1.40
2022-11-18T18:22:27.149Z,1.30
2022-11-18T18:24:56.595Z,1.40
2022-11-18T18:27:26.026Z,1.20
2022-11-18T18:29:55.845Z,1.20
2022-11-18T18:32:25.423Z,1.80
2022-11-18T18:34:54.873Z,1.20
2022-11-18T18:37:24.308Z,1.20
2022-11-18T18:39:53.759Z,1.63
2022-11-18T18:42:23.459Z,1.63
2022-11-18T18:45:10.751Z,2.10
2022-11-18T18:47:40.179Z,1.80
2022-11-18T18:50:09.777Z,1.60
2022-11-18T18:52:39.481Z,1.63
2022-11-18T18:55:09.236Z,1.30
2022-11-18T18:57:38.665Z,1.53
2022-11-18T19:00:10.539Z,1.60
2022-11-18T19:02:39.965Z,1.20
2022-11-18T19:05:10.082Z,1.30
2022-11-18T19:07:39.570Z,1.20
2022-11-18T19:10:09.449Z,1.07
2022-11-18T19:12:46.173Z,1.17
2022-11-18T19:15:16.797Z,1.20
2022-11-18T19:17:47.446Z,1.40
2022-11-18T19:20:36.498Z,1.07
2022-11-18T19:23:11.078Z,1.20
2022-11-18T19:25:40.683Z,1.20
2022-11-18T19:28:11.535Z,1.17
2022-11-18T19:30:41.047Z,1.43
2022-11-18T19:33:11.452Z,1.40
2022-11-18T19:35:40.903Z,1.43
2022-11-18T19:38:10.332Z,1.50
2022-11-18T19:40:39.817Z,1.43
2022-11-18T19:43:09.252Z,1.40
2022-11-18T19:45:38.697Z,1.73
2022-11-18T19:48:08.151Z,1.97
2022-11-18T19:50:37.640Z,2.10
2022-11-18T19:53:08.730Z,2.07
2022-11-18T19:55:38.170Z,1.90
2022-11-18T19:58:07.606Z,2.23
2022-11-18T20:00:37.052Z,2.00
2022-11-18T20:03:06.491Z,1.73
2022-11-18T20:05:41.187Z,2.00
2022-11-18T20:08:09.647Z,2.07
2022-11-18T20:10:39.088Z,2.03
2022-11-18T20:13:08.524Z,1.80
2022-11-18T20:15:37.966Z,1.93
2022-11-18T20:18:07.474Z,2.10
2022-11-18T20:20:38.003Z,2.23
2022-11-18T20:23:07.569Z,2.57
2022-11-18T20:25:37.602Z,2.20
2022-11-18T20:28:07.035Z,2.13
2022-11-18T20:30:36.948Z,2.10
2022-11-18T20:33:06.518Z,2.13
2022-11-18T20:35:35.964Z,2.00
2022-11-18T20:38:05.588Z,1.67
2022-11-18T20:40:35.063Z,2.02
2022-11-18T20:43:13.122Z,2.30
2022-11-18T20:45:43.667Z,2.00
2022-11-18T20:48:14.167Z,1.73
2022-11-18T20:50:46.942Z,1.87
2022-11-18T20:53:18.095Z,2.30
2022-11-18T20:55:50.996Z,2.30
2022-11-18T20:58:20.431Z,2.50
2022-11-18T21:00:50.047Z,2.83
2022-11-18T21:03:21.304Z,2.40
2022-11-18T21:05:50.747Z,2.60
2022-11-18T21:08:20.183Z,2.50
2022-11-18T21:10:49.629Z,2.63
2022-11-18T21:13:36.836Z,2.23
2022-11-18T21:16:06.585Z,2.50
2022-11-18T21:18:36.029Z,2.20
2022-11-18T21:21:23.107Z,2.00
2022-11-18T21:23:57.732Z,2.10
2022-11-18T21:26:29.953Z,2.20
2022-11-18T21:29:03.005Z,2.40
2022-11-18T21:31:33.249Z,2.03
2022-11-18T21:34:02.965Z,2.10
2022-11-18T21:36:33.052Z,1.97
2022-11-18T21:39:03.690Z,2.13
2022-11-18T21:41:33.405Z,1.70
2022-11-18T21:44:06.264Z,2.13
2022-11-18T21:46:37.606Z,1.70
2022-11-18T21:49:08.155Z,2.20
2022-11-18T21:51:38.515Z,1.97
2022-11-18T21:54:08.733Z,1.77
2022-11-18T21:56:38.186Z,2.07
2022-11-18T21:59:07.839Z,2.00
2022-11-18T22:01:37.396Z,1.70
2022-11-18T22:04:07.816Z,1.87
2022-11-18T22:06:37.441Z,1.90
2022-11-18T22:09:07.230Z,1.60
2022-11-18T22:11:36.698Z,1.90
2022-11-18T22:14:07.898Z,1.97
2022-11-18T22:16:37.822Z,1.70
2022-11-18T22:19:08.448Z,2.03
2022-11-18T22:21:38.000Z,2.10
2022-11-18T22:24:08.141Z,1.50
2022-11-18T22:26:37.606Z,1.80
2022-11-18T22:29:07.250Z,1.60
2022-11-18T22:31:36.712Z,1.53
2022-11-18T22:34:06.226Z,1.67
2022-11-18T22:36:35.693Z,1.80
2022-11-18T22:39:05.135Z,1.60
2022-11-18T22:41:52.455Z,1.70
2022-11-18T22:44:21.893Z,1.70
2022-11-18T22:46:52.799Z,1.90
2022-11-18T22:49:22.570Z,1.43
2022-11-18T22:51:52.095Z,1.60
2022-11-18T22:56:54.393Z,1.83
2022-11-18T22:59:25.440Z,2.03
2022-11-18T23:01:55.257Z,1.53
2022-11-18T23:04:24.725Z,2.00
2022-11-18T23:06:54.247Z,1.60
2022-11-18T23:09:23.767Z,2.20
2022-11-18T23:12:11.344Z,1.70
2022-11-18T23:14:40.953Z,1.33
2022-11-18T23:17:10.418Z,1.57
2022-11-18T23:19:41.497Z,1.80
2022-11-18T23:22:13.944Z,1.60
2022-11-18T23:24:43.388Z,1.73
2022-11-18T23:27:12.848Z,1.80
2022-11-18T23:29:42.368Z,1.57
2022-11-18T23:32:11.845Z,1.90
2022-11-18T23:34:41.280Z,1.87
2022-11-18T23:37:10.738Z,1.40
2022-11-18T23:39:40.182Z,1.40
2022-11-18T23:42:09.637Z,1.52
2022-11-18T23:44:49.568Z,1.47
2022-11-18T23:47:19.934Z,1.67
2022-11-18T23:49:49.477Z,1.60
2022-11-18T23:52:18.938Z,1.60
2022-11-18T23:54:49.751Z,1.93
2022-11-18T23:57:19.494Z,1.73
2022-11-18T23:59:49.043Z,1.53
